Time;durP1;ratioP1;P1;durP2;ratioP2;P2;SDS_P1;SDS_P2;PMS_P1;PMS_P2;Temp;Humidity;BMP_temperature;BMP_pressure;BME280_temperature;BME280_humidity;BME280_pressure;Samples;Min_cycle;Max_cycle;Signal;HPM_P1;HPM_P2
2022/08/13 00:01:33;;;;;;;;;;;24.60;46.80;;;;;;5060877;28;19921;-60
2022/08/13 00:04:01;;;;;;;;;;;24.60;46.70;;;;;;5070553;28;19947;-62
2022/08/13 00:09:09;;;;;;;;;;;24.60;46.80;;;;;;5086883;28;19927;-61
2022/08/13 00:14:22;;;;;;;;;;;24.60;46.90;;;;;;5101708;28;19926;-61
2022/08/13 00:16:49;;;;;;;;;;;24.60;46.90;;;;;;5089564;28;20001;-61
2022/08/13 00:19:19;;;;;;;;;;;24.60;46.90;;;;;;5082334;28;20388;-59
2022/08/13 00:21:46;;;;;;;;;;;24.60;47.00;;;;;;5093213;28;19928;-61
2022/08/13 00:24:15;;;;;;;;;;;24.60;47.00;;;;;;5109717;27;19920;-60
2022/08/13 00:26:45;;;;;;;;;;;24.60;47.00;;;;;;5069296;28;20278;-61
2022/08/13 00:29:18;;;;;;;;;;;24.60;47.00;;;;;;5102881;27;20009;-61
2022/08/13 00:31:48;;;;;;;;;;;24.60;47.00;;;;;;5066795;28;19920;-61
2022/08/13 00:34:20;;;;;;;;;;;24.60;47.00;;;;;;5093209;28;19930;-61
2022/08/13 00:36:47;;;;;;;;;;;24.60;47.10;;;;;;5093933;28;19935;-61
2022/08/13 00:39:13;;;;;;;;;;;24.60;47.10;;;;;;5106247;28;20381;-61
2022/08/13 00:41:42;;;;;;;;;;;24.60;47.10;;;;;;5068739;28;20369;-61
2022/08/13 00:44:09;;;;;;;;;;;24.50;47.00;;;;;;5086903;28;19920;-62
2022/08/13 00:46:36;;;;;;;;;;;24.50;47.00;;;;;;5069305;28;20427;-62
2022/08/13 00:49:03;;;;;;;;;;;24.50;47.00;;;;;;5093985;28;19924;-61
2022/08/13 00:51:34;;;;;;;;;;;24.50;47.00;;;;;;5074885;28;20377;-61
2022/08/13 00:54:02;;;;;;;;;;;24.60;47.10;;;;;;5078773;28;19931;-61
2022/08/13 00:56:33;;;;;;;;;;;24.50;47.00;;;;;;5088234;28;19925;-62
2022/08/13 00:59:07;;;;;;;;;;;24.60;47.10;;;;;;5114389;27;20339;-58
2022/08/13 01:01:41;;;;;;;;;;;24.50;47.00;;;;;;5074269;28;19920;-61
2022/08/13 01:04:08;;;;;;;;;;;24.60;47.10;;;;;;5078048;28;20273;-61
2022/08/13 01:06:36;;;;;;;;;;;24.50;47.00;;;;;;5079963;28;19931;-61
2022/08/13 01:09:04;;;;;;;;;;;24.50;47.10;;;;;;5061662;28;19965;-59
2022/08/13 01:11:32;;;;;;;;;;;24.50;47.10;;;;;;5077688;28;20318;-61
2022/08/13 01:13:58;;;;;;;;;;;24.50;47.10;;;;;;5108881;28;20476;-60
2022/08/13 01:16:26;;;;;;;;;;;24.50;47.10;;;;;;5098220;28;19930;-61
2022/08/13 01:18:52;;;;;;;;;;;24.50;47.10;;;;;;5100836;28;19927;-61
2022/08/13 01:21:20;;;;;;;;;;;24.50;47.10;;;;;;5071581;28;19974;-61
2022/08/13 01:23:48;;;;;;;;;;;24.50;47.70;;;;;;5102725;28;19973;-60
2022/08/13 01:26:15;;;;;;;;;;;24.50;47.10;;;;;;5072781;28;19924;-61
2022/08/13 01:28:42;;;;;;;;;;;24.50;47.10;;;;;;5100021;28;19967;-61
2022/08/13 01:31:09;;;;;;;;;;;24.50;47.10;;;;;;5091202;28;19927;-60
2022/08/13 01:33:36;;;;;;;;;;;24.50;47.10;;;;;;5066461;28;19925;-61
2022/08/13 01:36:03;;;;;;;;;;;24.50;47.20;;;;;;5088158;28;20267;-60
2022/08/13 01:38:30;;;;;;;;;;;24.50;47.20;;;;;;5086821;28;19982;-60
2022/08/13 01:40:58;;;;;;;;;;;24.50;47.20;;;;;;5090956;28;19928;-60
2022/08/13 01:43:28;;;;;;;;;;;24.50;47.20;;;;;;5102701;28;19973;-61
2022/08/13 01:45:55;;;;;;;;;;;24.50;47.20;;;;;;5079192;28;19920;-61
2022/08/13 01:51:08;;;;;;;;;;;24.50;47.20;;;;;;5085453;28;19920;-60
2022/08/13 01:53:34;;;;;;;;;;;24.50;47.20;;;;;;5104066;28;19931;-60
2022/08/13 01:56:03;;;;;;;;;;;24.50;47.30;;;;;;5094702;28;19963;-60
2022/08/13 01:58:30;;;;;;;;;;;24.50;47.20;;;;;;5065560;28;19955;-61
2022/08/13 02:00:59;;;;;;;;;;;24.50;47.30;;;;;;5063995;28;20388;-61
2022/08/13 02:03:26;;;;;;;;;;;24.50;47.30;;;;;;5086791;28;19987;-61
2022/08/13 02:05:53;;;;;;;;;;;24.50;47.20;;;;;;5097420;28;20336;-60
2022/08/13 02:08:20;;;;;;;;;;;24.40;47.20;;;;;;5091461;28;19926;-63
2022/08/13 02:10:47;;;;;;;;;;;24.40;47.20;;;;;;5090252;28;19920;-62
2022/08/13 02:13:16;;;;;;;;;;;24.40;47.20;;;;;;5091570;28;20365;-63
2022/08/13 02:15:43;;;;;;;;;;;24.40;47.20;;;;;;5066729;28;19924;-62
2022/08/13 02:18:17;;;;;;;;;;;24.50;47.30;;;;;;5075825;28;20373;-62
2022/08/13 02:20:44;;;;;;;;;;;24.40;47.20;;;;;;5089826;28;19978;-61
2022/08/13 02:23:11;;;;;;;;;;;24.50;47.30;;;;;;5089710;28;19924;-60
2022/08/13 02:25:38;;;;;;;;;;;24.40;47.20;;;;;;5094149;28;19924;-63
2022/08/13 02:28:05;;;;;;;;;;;24.40;47.10;;;;;;5010404;28;1848213;-62
2022/08/13 02:30:35;;;;;;;;;;;24.50;47.30;;;;;;5080096;28;20365;-61
2022/08/13 02:33:03;;;;;;;;;;;24.40;47.20;;;;;;5073224;28;19986;-62
2022/08/13 02:35:30;;;;;;;;;;;24.50;47.30;;;;;;5103362;27;20399;-61
2022/08/13 02:37:57;;;;;;;;;;;24.40;47.20;;;;;;5103673;28;20284;-62
2022/08/13 02:43:08;;;;;;;;;;;24.50;47.20;;;;;;5120743;27;19931;-61
2022/08/13 02:45:36;;;;;;;;;;;24.40;47.10;;;;;;5092161;28;20307;-62
2022/08/13 02:48:06;;;;;;;;;;;24.40;47.10;;;;;;5084488;28;19955;-62
2022/08/13 02:50:42;;;;;;;;;;;24.50;47.20;;;;;;5091439;28;19931;-62
2022/08/13 02:53:09;;;;;;;;;;;24.40;47.10;;;;;;5103145;28;20018;-61
2022/08/13 02:55:36;;;;;;;;;;;24.40;47.10;;;;;;5089285;28;19920;-62
2022/08/13 02:58:03;;;;;;;;;;;24.40;47.10;;;;;;5075130;28;19927;-62
2022/08/13 03:00:30;;;;;;;;;;;24.40;47.10;;;;;;5070411;28;20011;-62
2022/08/13 03:02:57;;;;;;;;;;;24.40;47.10;;;;;;5084430;28;19925;-62
2022/08/13 03:05:27;;;;;;;;;;;24.40;47.10;;;;;;5103072;28;20022;-62
2022/08/13 03:07:54;;;;;;;;;;;24.40;47.10;;;;;;5089600;28;19924;-61
2022/08/13 03:10:21;;;;;;;;;;;24.40;47.10;;;;;;5091699;28;19955;-63
2022/08/13 03:12:49;;;;;;;;;;;24.40;47.10;;;;;;5114905;27;19924;-62
2022/08/13 03:15:16;;;;;;;;;;;24.40;47.10;;;;;;5099219;28;19923;-60
2022/08/13 03:17:43;;;;;;;;;;;24.40;47.10;;;;;;5068614;28;19920;-62
2022/08/13 03:20:15;;;;;;;;;;;24.40;47.10;;;;;;5075342;28;19943;-61
2022/08/13 03:22:50;;;;;;;;;;;24.40;47.00;;;;;;5090692;28;19920;-61
2022/08/13 03:25:17;;;;;;;;;;;24.40;47.00;;;;;;5099918;28;20027;-62
2022/08/13 03:27:44;;;;;;;;;;;24.40;47.00;;;;;;5072322;28;19965;-61
2022/08/13 03:30:12;;;;;;;;;;;24.40;47.00;;;;;;5084391;28;19920;-63
2022/08/13 03:32:40;;;;;;;;;;;24.30;46.90;;;;;;5106845;27;19927;-61
2022/08/13 03:35:09;;;;;;;;;;;24.40;47.00;;;;;;5084132;28;19924;-62
2022/08/13 03:37:37;;;;;;;;;;;24.40;47.00;;;;;;5071061;28;19926;-62
2022/08/13 03:40:06;;;;;;;;;;;24.40;47.00;;;;;;5108228;27;20343;-61
2022/08/13 03:42:33;;;;;;;;;;;24.40;46.90;;;;;;5109154;27;19981;-62
2022/08/13 03:45:00;;;;;;;;;;;24.30;46.80;;;;;;5103648;27;19927;-60
2022/08/13 03:47:27;;;;;;;;;;;24.30;46.80;;;;;;5082332;28;19920;-60
2022/08/13 03:49:54;;;;;;;;;;;24.30;46.80;;;;;;5105977;28;19920;-61
2022/08/13 03:52:21;;;;;;;;;;;24.30;46.80;;;;;;5088546;28;19928;-61
2022/08/13 03:54:49;;;;;;;;;;;24.30;46.80;;;;;;5084033;28;20011;-60
2022/08/13 03:57:20;;;;;;;;;;;24.30;46.70;;;;;;5060130;28;19920;-62
2022/08/13 03:59:48;;;;;;;;;;;24.30;46.70;;;;;;5070237;28;19928;-61
2022/08/13 04:02:15;;;;;;;;;;;24.30;46.80;;;;;;5106282;28;19927;-61
2022/08/13 04:04:42;;;;;;;;;;;24.30;46.70;;;;;;5090844;28;19928;-61
2022/08/13 04:07:09;;;;;;;;;;;24.30;46.70;;;;;;5088890;28;19931;-60
2022/08/13 04:09:36;;;;;;;;;;;24.30;46.70;;;;;;5089250;28;19920;-61
2022/08/13 04:12:12;;;;;;;;;;;24.30;46.70;;;;;;5082355;28;19928;-59
2022/08/13 04:14:40;;;;;;;;;;;24.30;46.60;;;;;;5088913;28;19920;-59
2022/08/13 04:17:09;;;;;;;;;;;24.30;46.60;;;;;;5073559;28;20582;-62
2022/08/13 04:19:36;;;;;;;;;;;24.30;46.60;;;;;;5083247;28;19920;-60
2022/08/13 04:22:04;;;;;;;;;;;24.30;46.60;;;;;;5092477;28;19932;-61
2022/08/13 04:24:30;;;;;;;;;;;24.30;46.60;;;;;;5064359;28;19924;-62
2022/08/13 04:26:58;;;;;;;;;;;24.30;46.60;;;;;;5068992;28;19924;-60
2022/08/13 04:29:25;;;;;;;;;;;24.30;46.60;;;;;;5091473;28;19928;-61
2022/08/13 04:31:53;;;;;;;;;;;24.30;46.50;;;;;;5071793;28;19926;-61
2022/08/13 04:34:21;;;;;;;;;;;24.30;46.50;;;;;;5089141;28;19971;-61
2022/08/13 04:36:48;;;;;;;;;;;24.30;46.50;;;;;;5066376;28;19927;-61
2022/08/13 04:39:14;;;;;;;;;;;24.30;46.50;;;;;;5069533;28;20312;-62
2022/08/13 04:41:41;;;;;;;;;;;24.30;46.40;;;;;;5089591;28;20380;-60
2022/08/13 04:44:08;;;;;;;;;;;24.30;46.40;;;;;;5079665;28;20286;-62
2022/08/13 04:46:35;;;;;;;;;;;24.30;46.40;;;;;;5088150;28;19951;-61
2022/08/13 04:49:03;;;;;;;;;;;24.30;46.40;;;;;;5088892;28;20258;-61
2022/08/13 04:51:31;;;;;;;;;;;24.30;46.40;;;;;;5081851;28;19970;-61
2022/08/13 04:53:58;;;;;;;;;;;24.30;46.40;;;;;;5057329;28;19923;-61
2022/08/13 04:56:24;;;;;;;;;;;24.30;46.40;;;;;;5068802;28;20316;-62
2022/08/13 04:58:51;;;;;;;;;;;24.30;46.30;;;;;;5070725;28;19920;-59
2022/08/13 05:01:18;;;;;;;;;;;24.30;46.30;;;;;;5072266;28;19924;-62
2022/08/13 05:03:47;;;;;;;;;;;24.30;46.30;;;;;;5087933;28;19939;-60
2022/08/13 05:06:19;;;;;;;;;;;24.30;46.30;;;;;;5094727;28;19926;-61
2022/08/13 05:08:45;;;;;;;;;;;24.30;46.30;;;;;;5082002;28;19928;-61
2022/08/13 05:11:12;;;;;;;;;;;24.30;46.30;;;;;;5091916;28;20023;-61
2022/08/13 05:13:39;;;;;;;;;;;24.30;46.30;;;;;;5090027;28;19943;-61
2022/08/13 05:16:07;;;;;;;;;;;24.30;46.30;;;;;;5070501;28;19928;-62
2022/08/13 05:18:34;;;;;;;;;;;24.30;46.30;;;;;;5089336;28;20400;-61
2022/08/13 05:21:03;;;;;;;;;;;24.30;46.30;;;;;;5076769;28;19919;-63
2022/08/13 05:23:33;;;;;;;;;;;24.30;46.30;;;;;;5069879;28;20377;-61
2022/08/13 05:25:59;;;;;;;;;;;24.30;46.20;;;;;;5111093;28;19926;-61
2022/08/13 05:28:29;;;;;;;;;;;24.30;46.20;;;;;;5086017;28;19990;-62
2022/08/13 05:30:56;;;;;;;;;;;24.20;46.10;;;;;;5103601;28;19989;-62
2022/08/13 05:33:26;;;;;;;;;;;24.30;46.80;;;;;;5076447;28;19924;-62
2022/08/13 05:35:55;;;;;;;;;;;24.30;46.30;;;;;;5107731;28;19951;-63
2022/08/13 05:38:22;;;;;;;;;;;24.30;46.20;;;;;;5086307;28;19920;-63
2022/08/13 05:40:51;;;;;;;;;;;24.20;46.10;;;;;;5089861;28;20423;-63
2022/08/13 05:43:18;;;;;;;;;;;24.30;46.30;;;;;;5119687;27;20412;-62
2022/08/13 05:45:49;;;;;;;;;;;24.30;46.20;;;;;;5076508;28;19943;-61
2022/08/13 05:48:16;;;;;;;;;;;24.20;46.20;;;;;;5074567;28;20345;-61
2022/08/13 05:50:42;;;;;;;;;;;24.30;46.20;;;;;;5092273;28;19966;-62
2022/08/13 05:53:11;;;;;;;;;;;24.20;46.20;;;;;;5084528;28;19935;-61
2022/08/13 05:55:38;;;;;;;;;;;24.20;46.20;;;;;;5064408;28;20262;-61
2022/08/13 05:58:07;;;;;;;;;;;24.30;46.30;;;;;;5096080;28;19956;-63
2022/08/13 06:03:25;;;;;;;;;;;24.20;46.20;;;;;;5090071;28;19920;-62
2022/08/13 06:05:53;;;;;;;;;;;24.30;46.40;;;;;;5091588;28;20328;-63
2022/08/13 06:08:21;;;;;;;;;;;24.30;46.30;;;;;;5072536;28;20510;-61
2022/08/13 06:10:48;;;;;;;;;;;24.30;46.40;;;;;;5093995;28;20317;-63
2022/08/13 06:13:16;;;;;;;;;;;24.20;46.30;;;;;;5057664;28;19921;-63
2022/08/13 06:15:43;;;;;;;;;;;24.30;46.40;;;;;;5114877;27;20418;-60
2022/08/13 06:18:10;;;;;;;;;;;24.30;46.40;;;;;;5096321;28;20046;-60
2022/08/13 06:20:39;;;;;;;;;;;24.30;46.50;;;;;;5084922;28;19927;-60
2022/08/13 06:23:06;;;;;;;;;;;24.30;46.50;;;;;;5092049;28;19920;-60
2022/08/13 06:25:35;;;;;;;;;;;24.30;46.50;;;;;;5091454;28;19938;-61
2022/08/13 06:28:03;;;;;;;;;;;24.30;46.50;;;;;;5093682;28;19924;-61
2022/08/13 06:30:31;;;;;;;;;;;24.30;46.50;;;;;;5081799;28;19924;-61
2022/08/13 06:33:01;;;;;;;;;;;24.30;46.60;;;;;;5080440;28;19971;-60
2022/08/13 06:35:31;;;;;;;;;;;24.30;46.60;;;;;;5079568;28;19989;-60
2022/08/13 06:37:58;;;;;;;;;;;24.30;46.60;;;;;;5104661;28;20002;-62
2022/08/13 06:40:24;;;;;;;;;;;24.30;46.60;;;;;;5088945;28;20002;-61
2022/08/13 06:42:52;;;;;;;;;;;24.30;46.60;;;;;;5074813;28;20319;-61
2022/08/13 06:45:20;;;;;;;;;;;24.30;46.60;;;;;;5064799;28;19921;-61
2022/08/13 06:47:50;;;;;;;;;;;24.30;46.60;;;;;;5067824;28;20389;-61
2022/08/13 06:50:17;;;;;;;;;;;24.30;46.70;;;;;;5067760;28;20012;-61
2022/08/13 06:52:44;;;;;;;;;;;24.30;46.70;;;;;;5071225;28;20537;-61
2022/08/13 06:55:11;;;;;;;;;;;24.30;46.70;;;;;;5089924;28;19951;-61
2022/08/13 06:57:38;;;;;;;;;;;24.30;46.70;;;;;;5075087;28;20331;-61
2022/08/13 07:00:06;;;;;;;;;;;24.30;46.70;;;;;;5072133;28;19929;-61
2022/08/13 07:02:34;;;;;;;;;;;24.30;46.70;;;;;;5085144;28;19931;-61
2022/08/13 07:05:02;;;;;;;;;;;24.30;46.70;;;;;;5087797;28;19920;-61
2022/08/13 07:07:29;;;;;;;;;;;24.30;46.70;;;;;;5099885;27;20357;-61
2022/08/13 07:09:56;;;;;;;;;;;24.30;46.70;;;;;;5095255;28;20392;-61
2022/08/13 07:12:23;;;;;;;;;;;24.30;46.70;;;;;;5069987;28;19974;-61
2022/08/13 07:14:49;;;;;;;;;;;24.30;46.70;;;;;;5075626;28;20428;-61
2022/08/13 07:17:16;;;;;;;;;;;24.30;46.70;;;;;;5102486;28;19987;-60
2022/08/13 07:19:43;;;;;;;;;;;24.30;46.80;;;;;;5087171;28;19920;-61
2022/08/13 07:22:11;;;;;;;;;;;24.30;46.80;;;;;;5086171;28;19956;-62
2022/08/13 07:24:38;;;;;;;;;;;24.30;46.80;;;;;;5086242;28;19921;-61
2022/08/13 07:27:05;;;;;;;;;;;24.30;47.40;;;;;;5092923;28;19973;-62
2022/08/13 07:29:32;;;;;;;;;;;24.30;46.80;;;;;;5084383;28;20273;-61
2022/08/13 07:32:01;;;;;;;;;;;24.30;46.80;;;;;;5086046;28;19939;-61
2022/08/13 07:34:35;;;;;;;;;;;24.30;46.80;;;;;;5073310;28;20412;-61
2022/08/13 07:37:03;;;;;;;;;;;24.30;46.80;;;;;;5086395;28;19942;-61
2022/08/13 07:39:32;;;;;;;;;;;24.30;46.80;;;;;;5088268;28;19928;-62
2022/08/13 07:41:58;;;;;;;;;;;24.30;46.80;;;;;;5080692;28;19925;-62
2022/08/13 07:44:25;;;;;;;;;;;24.30;46.80;;;;;;5078643;28;19974;-61
2022/08/13 07:46:52;;;;;;;;;;;24.30;46.80;;;;;;5079639;28;19921;-62
2022/08/13 07:49:19;;;;;;;;;;;24.30;46.80;;;;;;5070705;28;19924;-62
2022/08/13 07:51:46;;;;;;;;;;;24.30;46.80;;;;;;5081712;28;20021;-63
2022/08/13 07:54:13;;;;;;;;;;;24.30;46.90;;;;;;5063467;28;19982;-63
2022/08/13 07:56:42;;;;;;;;;;;24.40;46.90;;;;;;5078148;28;19963;-62
2022/08/13 07:59:09;;;;;;;;;;;24.30;46.90;;;;;;5052515;28;19921;-62
2022/08/13 08:01:43;;;;;;;;;;;24.30;46.90;;;;;;5100838;28;19939;-63
2022/08/13 08:04:11;;;;;;;;;;;24.30;46.90;;;;;;5077823;28;20324;-62
2022/08/13 08:06:37;;;;;;;;;;;24.30;46.90;;;;;;5095138;28;20337;-63
2022/08/13 08:09:05;;;;;;;;;;;24.40;47.00;;;;;;5087261;28;19953;-63
2022/08/13 08:14:18;;;;;;;;;;;24.40;47.10;;;;;;5099506;28;19924;-62
2022/08/13 08:16:44;;;;;;;;;;;24.40;47.20;;;;;;5081535;28;20452;-62
2022/08/13 08:19:12;;;;;;;;;;;24.40;47.10;;;;;;5091188;28;20019;-61
2022/08/13 08:21:40;;;;;;;;;;;24.40;47.50;;;;;;5092379;28;19978;-62
2022/08/13 08:24:07;;;;;;;;;;;24.40;47.30;;;;;;5093307;28;20023;-62
2022/08/13 08:26:34;;;;;;;;;;;24.40;47.30;;;;;;5089177;28;19924;-64
2022/08/13 08:29:03;;;;;;;;;;;24.40;47.30;;;;;;5103995;28;19928;-62
2022/08/13 08:31:31;;;;;;;;;;;24.40;47.40;;;;;;5084109;28;19942;-63
2022/08/13 08:34:00;;;;;;;;;;;24.40;47.50;;;;;;5084112;28;19921;-62
2022/08/13 08:36:27;;;;;;;;;;;24.40;47.40;;;;;;5062078;28;19920;-62
2022/08/13 08:44:24;;;;;;;;;;;24.40;47.50;;;;;;5101503;28;20268;-62
2022/08/13 08:46:56;;;;;;;;;;;24.50;47.60;;;;;;5094950;28;19924;-63
2022/08/13 08:49:24;;;;;;;;;;;24.50;47.50;;;;;;5079920;28;19921;-62
2022/08/13 08:51:51;;;;;;;;;;;24.40;47.40;;;;;;5105873;28;19932;-64
2022/08/13 08:54:17;;;;;;;;;;;24.50;47.50;;;;;;5092917;28;20255;-62
2022/08/13 08:56:44;;;;;;;;;;;24.50;47.60;;;;;;5091188;28;19927;-63
2022/08/13 08:59:13;;;;;;;;;;;24.50;47.70;;;;;;5074654;28;20262;-62
2022/08/13 09:01:40;;;;;;;;;;;24.50;47.60;;;;;;5091483;28;19920;-61
2022/08/13 09:04:08;;;;;;;;;;;24.50;47.60;;;;;;5102036;27;19920;-61
2022/08/13 09:06:35;;;;;;;;;;;24.50;47.60;;;;;;5089173;28;20022;-62
2022/08/13 09:09:02;;;;;;;;;;;24.50;47.60;;;;;;5083526;28;19935;-62
2022/08/13 09:11:32;;;;;;;;;;;24.50;47.70;;;;;;5092519;28;19921;-63
2022/08/13 09:13:58;;;;;;;;;;;24.60;47.70;;;;;;5092134;28;20022;-62
2022/08/13 09:16:25;;;;;;;;;;;24.50;47.60;;;;;;5092728;28;19920;-62
2022/08/13 09:18:52;;;;;;;;;;;24.50;47.60;;;;;;5071591;28;19924;-62
2022/08/13 09:21:21;;;;;;;;;;;24.50;47.60;;;;;;5103462;28;20000;-63
2022/08/13 09:23:48;;;;;;;;;;;24.50;47.60;;;;;;5076567;28;20167;-62
2022/08/13 09:26:14;;;;;;;;;;;24.50;47.60;;;;;;5073293;28;20075;-62
2022/08/13 09:28:42;;;;;;;;;;;24.60;48.20;;;;;;5091460;28;20258;-61
2022/08/13 09:31:10;;;;;;;;;;;24.50;47.60;;;;;;5084403;28;20025;-62
2022/08/13 09:33:38;;;;;;;;;;;24.50;47.60;;;;;;5088723;28;19931;-63
2022/08/13 09:36:06;;;;;;;;;;;24.60;47.70;;;;;;5073341;28;20365;-62
2022/08/13 09:38:34;;;;;;;;;;;24.50;47.50;;;;;;5089973;28;19920;-63
2022/08/13 09:41:02;;;;;;;;;;;24.60;47.60;;;;;;5092938;28;20353;-63
2022/08/13 09:43:32;;;;;;;;;;;24.60;47.60;;;;;;5077401;28;19943;-62
2022/08/13 09:45:59;;;;;;;;;;;24.60;47.60;;;;;;5069812;28;19932;-63
2022/08/13 09:48:28;;;;;;;;;;;24.60;47.60;;;;;;5105207;28;19947;-62
2022/08/13 09:50:55;;;;;;;;;;;24.60;48.00;;;;;;5083675;28;19973;-63
2022/08/13 09:53:25;;;;;;;;;;;24.60;47.70;;;;;;5086902;28;19973;-62
2022/08/13 09:55:53;;;;;;;;;;;24.60;47.70;;;;;;5080521;28;19927;-63
2022/08/13 09:58:20;;;;;;;;;;;24.60;47.70;;;;;;5081110;28;19932;-61
2022/08/13 10:00:47;;;;;;;;;;;24.60;47.70;;;;;;5073158;28;19963;-61
2022/08/13 10:03:14;;;;;;;;;;;24.60;47.60;;;;;;5085453;28;19924;-62
2022/08/13 10:05:41;;;;;;;;;;;24.60;47.70;;;;;;5081992;28;19951;-62
2022/08/13 10:08:08;;;;;;;;;;;24.60;47.60;;;;;;5061349;28;19975;-62
2022/08/13 10:10:35;;;;;;;;;;;24.60;47.60;;;;;;5073993;28;19927;-62
2022/08/13 10:13:03;;;;;;;;;;;24.60;47.60;;;;;;5070158;28;19939;-62
2022/08/13 10:15:30;;;;;;;;;;;24.60;47.60;;;;;;5106907;27;19936;-64
2022/08/13 10:17:57;;;;;;;;;;;24.60;47.50;;;;;;5091772;28;19921;-63
2022/08/13 10:20:24;;;;;;;;;;;24.60;47.50;;;;;;5080260;28;20003;-63
2022/08/13 10:22:51;;;;;;;;;;;24.60;47.50;;;;;;5096019;27;19920;-63
2022/08/13 10:25:18;;;;;;;;;;;24.60;47.50;;;;;;5077223;28;19921;-63
2022/08/13 10:27:45;;;;;;;;;;;24.60;47.50;;;;;;5101576;28;20312;-64
2022/08/13 10:30:13;;;;;;;;;;;24.60;47.50;;;;;;5103271;27;19930;-63
2022/08/13 10:32:40;;;;;;;;;;;24.60;47.50;;;;;;5087244;28;19920;-64
2022/08/13 10:35:09;;;;;;;;;;;24.60;47.50;;;;;;5103265;27;19920;-64
2022/08/13 10:37:43;;;;;;;;;;;24.60;47.50;;;;;;5088918;28;20354;-63
2022/08/13 10:40:10;;;;;;;;;;;24.60;47.50;;;;;;5072197;28;19936;-63
2022/08/13 10:42:37;;;;;;;;;;;24.60;47.50;;;;;;5066923;28;20006;-63
2022/08/13 10:45:05;;;;;;;;;;;24.60;47.50;;;;;;5078924;28;20415;-63
2022/08/13 10:47:33;;;;;;;;;;;24.70;47.60;;;;;;5089066;28;19963;-63
2022/08/13 10:50:00;;;;;;;;;;;24.60;47.50;;;;;;5088245;28;19970;-63
2022/08/13 10:52:27;;;;;;;;;;;24.60;47.50;;;;;;5073502;28;19924;-63
2022/08/13 10:54:54;;;;;;;;;;;24.60;47.50;;;;;;5110403;27;19934;-63
2022/08/13 10:57:21;;;;;;;;;;;24.70;47.60;;;;;;5087280;28;19920;-63
2022/08/13 10:59:48;;;;;;;;;;;24.60;47.50;;;;;;5086653;28;19920;-63
2022/08/13 11:02:15;;;;;;;;;;;24.70;47.60;;;;;;5082473;28;19969;-63
2022/08/13 11:04:44;;;;;;;;;;;24.60;47.50;;;;;;5064829;28;19927;-63
2022/08/13 11:07:11;;;;;;;;;;;24.70;47.60;;;;;;5072318;28;19923;-63
2022/08/13 11:09:39;;;;;;;;;;;24.60;47.50;;;;;;5074168;28;20354;-63
2022/08/13 11:12:07;;;;;;;;;;;24.60;47.50;;;;;;5072093;28;19931;-63
2022/08/13 11:14:34;;;;;;;;;;;24.60;47.50;;;;;;5095310;28;19935;-63
2022/08/13 11:17:04;;;;;;;;;;;24.70;47.60;;;;;;5072739;28;20369;-63
2022/08/13 11:19:33;;;;;;;;;;;24.70;47.60;;;;;;5102288;27;19920;-63
2022/08/13 11:22:01;;;;;;;;;;;24.70;47.60;;;;;;5070149;28;19927;-62
2022/08/13 11:24:28;;;;;;;;;;;24.70;47.60;;;;;;5065256;28;19943;-63
2022/08/13 11:26:55;;;;;;;;;;;24.70;47.60;;;;;;5085343;28;20255;-64
2022/08/13 11:29:21;;;;;;;;;;;24.70;47.60;;;;;;5081495;28;19962;-62
2022/08/13 11:31:48;;;;;;;;;;;24.70;47.60;;;;;;5102443;28;20015;-63
2022/08/13 11:34:15;;;;;;;;;;;24.70;47.60;;;;;;5067182;28;19920;-63
2022/08/13 11:36:42;;;;;;;;;;;24.70;47.60;;;;;;5090710;28;19920;-64
2022/08/13 11:39:11;;;;;;;;;;;24.70;47.60;;;;;;5065163;28;19959;-63
2022/08/13 11:41:37;;;;;;;;;;;24.70;47.60;;;;;;5072587;28;20381;-63
2022/08/13 11:44:04;;;;;;;;;;;24.70;47.60;;;;;;5071923;28;19982;-63
2022/08/13 11:46:31;;;;;;;;;;;24.70;47.60;;;;;;5080859;28;19966;-63
2022/08/13 11:48:57;;;;;;;;;;;24.70;47.60;;;;;;5063212;28;19928;-62
2022/08/13 11:51:24;;;;;;;;;;;24.70;47.60;;;;;;5080929;28;19979;-63
2022/08/13 11:53:51;;;;;;;;;;;24.70;47.60;;;;;;5093019;28;19931;-63
2022/08/13 11:56:19;;;;;;;;;;;24.70;47.60;;;;;;5085798;28;19936;-63
2022/08/13 11:58:46;;;;;;;;;;;24.70;47.60;;;;;;5100902;28;19974;-63
2022/08/13 12:01:16;;;;;;;;;;;24.70;47.60;;;;;;5083297;28;19973;-63
2022/08/13 12:03:43;;;;;;;;;;;24.70;47.60;;;;;;5082037;28;19939;-63
2022/08/13 12:06:10;;;;;;;;;;;24.70;47.70;;;;;;5087956;28;19928;-63
2022/08/13 12:08:37;;;;;;;;;;;24.70;47.60;;;;;;5074615;28;20315;-63
2022/08/13 12:11:04;;;;;;;;;;;24.70;47.60;;;;;;5068876;28;20312;-64
2022/08/13 12:13:32;;;;;;;;;;;24.70;47.60;;;;;;5080284;28;20416;-63
2022/08/13 12:15:59;;;;;;;;;;;24.70;47.60;;;;;;5079673;28;19912;-63
2022/08/13 12:18:26;;;;;;;;;;;24.70;47.60;;;;;;5063395;28;19959;-63
2022/08/13 12:20:52;;;;;;;;;;;24.70;47.70;;;;;;5074757;28;19959;-62
2022/08/13 12:23:19;;;;;;;;;;;24.70;47.70;;;;;;5058249;28;20011;-62
2022/08/13 12:25:46;;;;;;;;;;;24.70;47.60;;;;;;5087840;28;19921;-63
2022/08/13 12:28:16;;;;;;;;;;;24.70;47.60;;;;;;5087180;28;20011;-64
2022/08/13 12:30:46;;;;;;;;;;;24.70;47.60;;;;;;5087902;28;19956;-63
2022/08/13 12:33:12;;;;;;;;;;;24.70;47.60;;;;;;5108193;27;20073;-63
2022/08/13 12:35:39;;;;;;;;;;;24.70;47.60;;;;;;5086355;28;19942;-63
2022/08/13 12:38:09;;;;;;;;;;;24.80;47.70;;;;;;5102075;28;19963;-63
2022/08/13 12:40:36;;;;;;;;;;;24.80;47.70;;;;;;5071216;28;19995;-63
2022/08/13 12:43:03;;;;;;;;;;;24.70;47.60;;;;;;5083880;28;20388;-63
2022/08/13 12:45:30;;;;;;;;;;;24.70;47.70;;;;;;5074018;28;19991;-63
2022/08/13 12:48:03;;;;;;;;;;;24.80;47.70;;;;;;5073501;28;19924;-63
2022/08/13 12:50:30;;;;;;;;;;;24.80;47.70;;;;;;5100035;27;20430;-63
2022/08/13 12:52:57;;;;;;;;;;;24.80;48.30;;;;;;5060320;28;20300;-63
2022/08/13 12:55:24;;;;;;;;;;;24.80;47.70;;;;;;5083184;28;19920;-63
2022/08/13 12:57:51;;;;;;;;;;;24.80;47.70;;;;;;5092486;28;20420;-61
2022/08/13 13:00:18;;;;;;;;;;;24.80;47.70;;;;;;5081301;28;19921;-61
2022/08/13 13:02:45;;;;;;;;;;;24.80;47.70;;;;;;5072121;28;20368;-63
2022/08/13 13:05:14;;;;;;;;;;;24.80;47.70;;;;;;5065538;28;19932;-62
2022/08/13 13:07:40;;;;;;;;;;;24.80;47.80;;;;;;5086539;28;19920;-63
2022/08/13 13:10:09;;;;;;;;;;;24.80;47.80;;;;;;5089783;28;19936;-64
2022/08/13 13:12:35;;;;;;;;;;;24.80;47.90;;;;;;5062451;28;20328;-65
2022/08/13 13:15:02;;;;;;;;;;;24.80;47.90;;;;;;5073675;28;19920;-62
2022/08/13 13:17:29;;;;;;;;;;;24.90;48.00;;;;;;5075628;28;19924;-62
2022/08/13 13:19:58;;;;;;;;;;;24.80;47.90;;;;;;5089903;28;19924;-62
2022/08/13 13:22:26;;;;;;;;;;;24.90;48.00;;;;;;5069964;28;19927;-62
2022/08/13 13:24:52;;;;;;;;;;;24.90;48.00;;;;;;5085834;28;19959;-62
2022/08/13 13:27:20;;;;;;;;;;;24.80;47.90;;;;;;5058905;28;20358;-63
2022/08/13 13:29:46;;;;;;;;;;;24.90;48.00;;;;;;5105775;28;19927;-64
2022/08/13 13:32:13;;;;;;;;;;;24.90;48.00;;;;;;5072932;28;19928;-62
2022/08/13 13:34:42;;;;;;;;;;;24.90;48.00;;;;;;5107556;27;20328;-62
2022/08/13 13:37:09;;;;;;;;;;;24.90;48.60;;;;;;5073717;28;19924;-62
2022/08/13 13:39:37;;;;;;;;;;;24.90;48.00;;;;;;5082913;28;19928;-62
2022/08/13 13:42:04;;;;;;;;;;;24.90;48.00;;;;;;5082809;28;19924;-62
2022/08/13 13:44:30;;;;;;;;;;;24.90;48.00;;;;;;5083860;28;19920;-62
2022/08/13 13:46:57;;;;;;;;;;;24.90;48.10;;;;;;5089613;28;19930;-62
2022/08/13 13:49:24;;;;;;;;;;;24.90;48.00;;;;;;5071204;28;19943;-63
2022/08/13 13:51:51;;;;;;;;;;;24.90;48.10;;;;;;5081069;28;19927;-62
2022/08/13 13:54:19;;;;;;;;;;;24.90;48.10;;;;;;5078141;28;19927;-62
2022/08/13 13:56:48;;;;;;;;;;;24.90;48.10;;;;;;5070924;28;20011;-62
2022/08/13 13:59:15;;;;;;;;;;;24.90;48.10;;;;;;5065759;28;20277;-62
2022/08/13 14:01:41;;;;;;;;;;;24.90;48.10;;;;;;5096502;28;19925;-62
2022/08/13 14:04:08;;;;;;;;;;;24.90;48.10;;;;;;5077101;28;20367;-62
2022/08/13 14:06:35;;;;;;;;;;;24.90;48.10;;;;;;5084885;28;19970;-62
2022/08/13 14:09:02;;;;;;;;;;;24.90;48.10;;;;;;5086618;28;19932;-62
2022/08/13 14:11:31;;;;;;;;;;;24.90;48.10;;;;;;5082880;28;19932;-62
2022/08/13 14:13:59;;;;;;;;;;;24.90;48.20;;;;;;5061602;28;19924;-62
2022/08/13 14:16:26;;;;;;;;;;;24.90;48.20;;;;;;5070025;28;19923;-62
2022/08/13 14:18:53;;;;;;;;;;;24.90;48.20;;;;;;5070191;28;19932;-64
2022/08/13 14:21:21;;;;;;;;;;;24.90;48.20;;;;;;5094772;28;20464;-63
2022/08/13 14:23:48;;;;;;;;;;;24.90;48.20;;;;;;5066264;28;20053;-63
2022/08/13 14:26:15;;;;;;;;;;;24.90;48.20;;;;;;5075716;28;19920;-63
2022/08/13 14:28:43;;;;;;;;;;;24.90;48.20;;;;;;5073349;28;19927;-63
2022/08/13 14:31:12;;;;;;;;;;;24.90;48.20;;;;;;5067916;28;19921;-63
2022/08/13 14:33:39;;;;;;;;;;;24.90;48.20;;;;;;5076460;28;20320;-63
2022/08/13 14:36:06;;;;;;;;;;;24.90;48.20;;;;;;5084760;28;19950;-64
2022/08/13 14:38:33;;;;;;;;;;;24.90;48.20;;;;;;5080736;28;19931;-63
2022/08/13 14:41:01;;;;;;;;;;;24.90;48.20;;;;;;5100748;27;19932;-63